Amenia, New York
Current Conditions -  °F | °C
As of 4:53 PM on Thursday 18 Dec 2014 (Local Time) from KPOU Reporting Station
Overcast Overcast  
Wind Chill: 33°   Ceiling: 3900
Heat Index: 39°   Visibility: 10mi
Dew Point: 25°   Wind: 9mph
Humidity: 57%   Direction: 270°W
Pressure: 29.95"   Gusts: NA
Location:  41.85°N, 73.55°W
Report Text: KPOU 182153Z AUTO 27008KT 10SM OVC039 04/M04 A2995 RMK AO2 SLP141 T00391039 TSNO
Loading
Personal Weather Stations






























Interactive Weather Map New forecast layout! Learn more

10-Day Weather Forecast

Advertisements
Track Severe Weather on mobile